createdAt,value
2019-04-16T00:00:12.743Z,82.71
2019-04-16T00:01:13.933Z,83.00
2019-04-16T00:02:11.892Z,83.48
2019-04-16T00:03:11.818Z,83.86
2019-04-16T00:04:11.745Z,84.20
2019-04-16T00:05:11.673Z,84.01
2019-04-16T00:06:11.605Z,84.11
2019-04-16T00:07:11.542Z,83.92
2019-04-16T00:08:26.660Z,84.11
2019-04-16T00:09:11.413Z,84.20
2019-04-16T00:10:11.328Z,84.01
2019-04-16T00:11:11.261Z,83.63
2019-04-16T00:12:11.198Z,83.48
2019-04-16T00:13:11.131Z,83.38
2019-04-16T00:14:11.064Z,83.48
2019-04-16T00:15:11.005Z,83.48
2019-04-16T00:16:12.963Z,83.53
2019-04-16T00:17:13.147Z,83.25
2019-04-16T00:18:10.795Z,83.72
2019-04-16T00:19:10.718Z,83.53
2019-04-16T00:20:10.640Z,83.63
2019-04-16T00:21:10.786Z,84.01
2019-04-16T00:22:12.426Z,83.92
2019-04-16T00:23:10.441Z,83.34
2019-04-16T00:24:10.405Z,83.72
2019-04-16T00:25:10.308Z,83.15
2019-04-16T00:26:10.273Z,83.63
2019-04-16T00:27:10.170Z,83.44
2019-04-16T00:28:10.088Z,83.25
2019-04-16T00:29:10.021Z,83.20
2019-04-16T00:30:09.980Z,83.20
2019-04-16T00:31:09.879Z,83.68
2019-04-16T00:32:09.840Z,83.68
2019-04-16T00:33:10.691Z,83.87
2019-04-16T00:34:13.458Z,84.06
2019-04-16T00:35:09.601Z,83.97
2019-04-16T00:36:09.545Z,84.06
2019-04-16T00:37:09.482Z,83.49
2019-04-16T00:38:09.411Z,83.11
2019-04-16T00:39:09.340Z,82.53
2019-04-16T00:40:09.259Z,82.53
2019-04-16T00:41:09.188Z,82.63
2019-04-16T00:42:09.116Z,83.20
2019-04-16T00:43:09.051Z,83.68
2019-04-16T00:44:09.001Z,83.97
2019-04-16T00:45:08.923Z,83.93
2019-04-16T00:46:11.610Z,83.83
2019-04-16T00:47:08.786Z,84.79
2019-04-16T00:48:08.705Z,84.79
2019-04-16T00:49:08.629Z,84.69
2019-04-16T00:50:08.575Z,84.12
2019-04-16T00:51:08.533Z,84.59
2019-04-16T00:52:08.439Z,85.41
2019-04-16T00:53:09.020Z,85.41
2019-04-16T00:54:10.341Z,85.17
2019-04-16T00:55:08.217Z,85.08
2019-04-16T00:56:08.154Z,84.79
2019-04-16T00:57:08.083Z,84.50
2019-04-16T00:58:08.015Z,84.06
2019-04-16T00:59:07.960Z,83.39
2019-04-16T01:00:07.867Z,83.64
2019-04-16T01:01:07.797Z,84.08
2019-04-16T01:02:07.733Z,84.84
2019-04-16T01:03:07.658Z,84.94
2019-04-16T01:04:07.599Z,85.32
2019-04-16T01:05:07.524Z,85.27
2019-04-16T01:06:08.372Z,84.46
2019-04-16T01:07:07.377Z,84.41
2019-04-16T01:08:07.319Z,84.22
2019-04-16T01:09:07.249Z,84.41
2019-04-16T01:10:07.182Z,83.83
2019-04-16T01:11:07.101Z,83.83
2019-04-16T01:12:07.172Z,83.93
2019-04-16T01:13:07.083Z,83.68
2019-04-16T01:14:07.103Z,83.30
2019-04-16T01:15:06.821Z,82.63
2019-04-16T01:16:06.751Z,82.59
2019-04-16T01:17:06.677Z,83.11
2019-04-16T01:18:08.015Z,82.82
2019-04-16T01:19:09.531Z,82.63
2019-04-16T01:20:06.481Z,82.53
2019-04-16T01:21:06.562Z,82.53
2019-04-16T01:22:06.337Z,82.06
2019-04-16T01:23:06.274Z,82.06
2019-04-16T01:24:06.202Z,81.67
2019-04-16T01:25:06.136Z,82.06
2019-04-16T01:26:06.069Z,81.96
2019-04-16T01:27:05.983Z,82.49
2019-04-16T01:28:05.922Z,82.40
2019-04-16T01:29:06.072Z,83.26
2019-04-16T01:30:06.494Z,83.26
2019-04-16T01:31:08.079Z,82.87
2019-04-16T01:32:10.173Z,82.63
2019-04-16T01:33:05.575Z,82.78
2019-04-16T01:34:05.506Z,83.06
2019-04-16T01:35:05.426Z,84.02
2019-04-16T01:36:05.351Z,84.12
2019-04-16T01:37:05.387Z,83.83
2019-04-16T01:38:05.227Z,83.93
2019-04-16T01:39:16.037Z,83.93
2019-04-16T01:40:05.072Z,84.22
2019-04-16T01:41:05.005Z,83.83
2019-04-16T01:42:04.937Z,83.93
2019-04-16T01:43:04.875Z,83.83
2019-04-16T01:44:04.810Z,83.93
2019-04-16T01:45:04.740Z,84.46
2019-04-16T01:46:04.667Z,85.41
2019-04-16T01:47:05.295Z,85.22
2019-04-16T01:48:07.846Z,85.51
2019-04-16T01:49:04.482Z,85.61
2019-04-16T01:50:04.382Z,85.99
2019-04-16T01:51:04.354Z,85.80
2019-04-16T01:52:04.251Z,85.41
2019-04-16T01:53:04.167Z,85.32
2019-04-16T01:54:04.099Z,84.84
2019-04-16T01:55:04.041Z,85.13
2019-04-16T01:56:03.970Z,85.22
2019-04-16T01:57:03.904Z,84.46
2019-04-16T01:58:03.975Z,83.83
2019-04-16T01:59:05.548Z,84.02
2019-04-16T02:00:06.791Z,83.54
2019-04-16T02:01:03.608Z,82.87
2019-04-16T02:02:03.541Z,83.64
2019-04-16T02:03:03.480Z,84.02
2019-04-16T02:04:03.414Z,84.12
2019-04-16T02:05:03.341Z,83.54
2019-04-16T02:06:03.275Z,83.54
2019-04-16T02:07:03.418Z,83.64
2019-04-16T02:08:03.119Z,83.26
2019-04-16T02:09:03.385Z,82.78
2019-04-16T02:10:06.377Z,82.59
2019-04-16T02:11:02.912Z,82.73
2019-04-16T02:12:02.842Z,82.24
2019-04-16T02:13:02.774Z,82.24
2019-04-16T02:14:02.716Z,82.24
2019-04-16T02:15:02.672Z,82.24
2019-04-16T02:16:02.574Z,82.15
2019-04-16T02:17:02.495Z,82.06
2019-04-16T02:18:02.438Z,82.15
2019-04-16T02:19:02.745Z,82.15
2019-04-16T02:20:06.159Z,81.86
2019-04-16T02:21:02.269Z,82.01
2019-04-16T02:22:02.157Z,82.30
2019-04-16T02:23:02.075Z,82.59
2019-04-16T02:24:02.003Z,83.54
2019-04-16T02:25:02.035Z,82.97
2019-04-16T02:26:02.176Z,83.45
2019-04-16T02:27:01.796Z,83.50
2019-04-16T02:28:01.725Z,84.27
2019-04-16T02:29:01.660Z,84.55
2019-04-16T02:30:02.701Z,84.94
2019-04-16T02:31:01.535Z,84.75
2019-04-16T02:32:01.845Z,84.36
2019-04-16T02:33:01.423Z,84.46
2019-04-16T02:34:01.341Z,84.55
2019-04-16T02:35:01.240Z,83.79
2019-04-16T02:36:01.170Z,84.46
2019-04-16T02:37:02.985Z,84.65
2019-04-16T02:38:01.028Z,84.65
2019-04-16T02:39:00.984Z,84.55
2019-04-16T02:40:01.021Z,84.12
2019-04-16T02:41:00.818Z,83.64
2019-04-16T02:42:00.901Z,83.64
2019-04-16T02:43:06.142Z,83.54
2019-04-16T02:44:00.886Z,82.87
2019-04-16T02:45:00.551Z,83.54
2019-04-16T02:46:00.597Z,83.45
2019-04-16T02:47:05.414Z,83.54
2019-04-16T02:48:00.331Z,83.98
2019-04-16T02:49:00.269Z,84.08
2019-04-16T02:50:00.202Z,83.98
2019-04-16T02:51:05.339Z,84.02
2019-04-16T02:52:00.049Z,83.45
2019-04-16T02:52:59.978Z,83.45
2019-04-16T02:54:00.161Z,83.36
2019-04-16T02:55:08.311Z,83.16
2019-04-16T02:55:59.786Z,83.16
2019-04-16T02:56:59.709Z,82.78
2019-04-16T02:58:01.224Z,82.40
2019-04-16T02:58:59.573Z,82.87
2019-04-16T02:59:59.503Z,82.34
2019-04-16T03:00:59.432Z,82.15
2019-04-16T03:01:59.364Z,82.06
2019-04-16T03:02:59.281Z,81.48
2019-04-16T03:03:59.212Z,81.67
2019-04-16T03:04:59.141Z,82.24
2019-04-16T03:06:00.914Z,82.53
2019-04-16T03:07:02.727Z,82.82
2019-04-16T03:08:01.463Z,82.63
2019-04-16T03:08:58.874Z,83.11
2019-04-16T03:10:01.346Z,83.59
2019-04-16T03:10:58.725Z,83.68
2019-04-16T03:11:58.652Z,84.16
2019-04-16T03:12:58.598Z,84.92
2019-04-16T03:13:59.472Z,84.64
2019-04-16T03:15:01.214Z,84.26
2019-04-16T03:15:58.375Z,84.83
2019-04-16T03:16:58.305Z,85.12
2019-04-16T03:17:58.237Z,85.21
2019-04-16T03:18:58.180Z,85.60
2019-04-16T03:19:58.110Z,85.50
2019-04-16T03:20:58.029Z,85.88
2019-04-16T03:21:59.057Z,85.60
2019-04-16T03:22:57.902Z,84.64
2019-04-16T03:23:57.829Z,82.82
2019-04-16T03:24:57.794Z,81.67
2019-04-16T03:25:57.692Z,78.80
2019-04-16T03:26:57.609Z,77.08
2019-04-16T03:27:57.541Z,76.12
2019-04-16T03:28:59.224Z,74.20
2019-04-16T03:30:02.976Z,74.01
2019-04-16T03:30:57.330Z,72.96
2019-04-16T03:31:59.283Z,71.62
2019-04-16T03:32:57.196Z,71.04
2019-04-16T03:33:57.127Z,68.84
2019-04-16T03:34:57.069Z,66.74
2019-04-16T03:35:57.934Z,65.11
2019-04-16T03:36:58.666Z,62.81
2019-04-16T03:37:56.855Z,61.37
2019-04-16T03:38:56.816Z,58.59
2019-04-16T03:39:56.707Z,58.02
2019-04-16T03:40:56.746Z,55.63
2019-04-16T03:41:56.913Z,51.79
2019-04-16T03:42:59.257Z,51.32
2019-04-16T03:43:56.441Z,49.79
2019-04-16T03:44:56.368Z,48.93
2019-04-16T03:45:56.291Z,46.05
2019-04-16T03:46:56.232Z,45.86
2019-04-16T03:47:56.177Z,44.04
2019-04-16T03:48:56.452Z,44.52
2019-04-16T03:49:56.389Z,43.56
2019-04-16T03:50:55.946Z,40.12
2019-04-16T03:51:55.873Z,39.04
2019-04-16T03:52:55.801Z,36.55
2019-04-16T03:53:55.743Z,35.50
2019-04-16T03:54:55.672Z,34.74
2019-04-16T03:55:58.247Z,33.78
2019-04-16T03:56:55.538Z,31.20
2019-04-16T03:57:55.458Z,29.66
2019-04-16T03:58:55.388Z,28.04
2019-04-16T03:59:55.328Z,28.13
2019-04-16T04:00:55.259Z,27.94
2019-04-16T04:01:55.181Z,27.56
2019-04-16T04:02:55.414Z,27.84
2019-04-16T04:03:57.545Z,23.92
2019-04-16T04:04:57.602Z,23.16
2019-04-16T04:05:54.918Z,23.73
2019-04-16T04:06:54.837Z,23.06
2019-04-16T04:07:55.385Z,23.92
2019-04-16T04:08:54.705Z,24.30
2019-04-16T04:09:55.258Z,24.11
2019-04-16T04:10:54.551Z,24.50
2019-04-16T04:11:54.479Z,24.59
2019-04-16T04:12:54.410Z,21.34
2019-04-16T04:13:54.352Z,20.29
2019-04-16T04:14:55.151Z,20.38
2019-04-16T04:15:55.183Z,19.90
2019-04-16T04:16:54.129Z,17.69
2019-04-16T04:17:54.075Z,17.98
2019-04-16T04:18:54.005Z,16.45
2019-04-16T04:19:53.934Z,16.17
2019-04-16T04:20:53.863Z,15.79
2019-04-16T04:21:54.475Z,16.93
2019-04-16T04:22:56.737Z,18.37
2019-04-16T04:23:53.655Z,19.33
2019-04-16T04:24:53.584Z,19.23
2019-04-16T04:25:53.506Z,20.00
2019-04-16T04:26:53.435Z,21.24
2019-04-16T04:27:53.370Z,20.57
2019-04-16T04:28:53.292Z,21.24
2019-04-16T04:29:53.659Z,21.81
2019-04-16T04:30:53.165Z,21.05
2019-04-16T04:31:53.087Z,22.30
2019-04-16T04:32:53.014Z,22.97
2019-04-16T04:33:52.957Z,23.25
2019-04-16T04:34:52.887Z,23.83
2019-04-16T04:35:52.815Z,23.92
2019-04-16T04:36:52.775Z,23.92
2019-04-16T04:37:52.663Z,23.92
2019-04-16T04:38:52.592Z,24.02
2019-04-16T04:39:52.522Z,21.81
2019-04-16T04:40:52.456Z,16.83
2019-04-16T04:41:52.606Z,14.83
2019-04-16T04:42:52.326Z,13.97
2019-04-16T04:43:52.256Z,14.83
2019-04-16T04:44:52.188Z,14.63
2019-04-16T04:45:52.108Z,15.01
2019-04-16T04:46:52.036Z,17.03
2019-04-16T04:47:52.376Z,18.27
2019-04-16T04:48:55.007Z,20.38
2019-04-16T04:49:51.825Z,22.87
2019-04-16T04:50:51.756Z,23.06
2019-04-16T04:51:51.686Z,24.50
2019-04-16T04:52:51.616Z,25.65
2019-04-16T04:53:51.562Z,26.60
2019-04-16T04:54:54.114Z,28.72
2019-04-16T04:55:51.412Z,29.76
2019-04-16T04:56:51.349Z,29.68
2019-04-16T04:57:51.268Z,30.44
2019-04-16T04:58:51.196Z,31.12
2019-04-16T04:59:51.146Z,31.21
2019-04-16T05:00:51.055Z,30.43
2019-04-16T05:01:51.000Z,30.35
2019-04-16T05:02:50.932Z,30.62
2019-04-16T05:03:50.844Z,29.66
2019-04-16T05:04:52.454Z,29.28
2019-04-16T05:05:53.321Z,28.42
2019-04-16T05:06:50.649Z,28.04
2019-04-16T05:07:50.581Z,28.23
2019-04-16T05:08:50.509Z,28.70
2019-04-16T05:09:50.432Z,29.28
2019-04-16T05:10:58.833Z,28.80
2019-04-16T05:11:50.293Z,28.04
2019-04-16T05:12:50.509Z,28.33
2019-04-16T05:13:50.164Z,28.04
2019-04-16T05:14:50.089Z,28.52
2019-04-16T05:15:50.024Z,30.15
2019-04-16T05:16:49.955Z,30.62
2019-04-16T05:17:49.873Z,31.58
2019-04-16T05:18:49.805Z,31.40
2019-04-16T05:19:49.745Z,31.10
2019-04-16T05:20:49.678Z,31.79
2019-04-16T05:21:50.656Z,32.55
2019-04-16T05:22:50.551Z,32.25
2019-04-16T05:23:49.455Z,30.24
2019-04-16T05:24:49.392Z,29.19
2019-04-16T05:25:49.326Z,29.47
2019-04-16T05:26:49.257Z,30.05
2019-04-16T05:27:49.174Z,30.15
2019-04-16T05:28:49.104Z,31.01
2019-04-16T05:29:49.671Z,31.96
2019-04-16T05:30:51.783Z,32.65
2019-04-16T05:31:48.908Z,32.93
2019-04-16T05:32:48.835Z,32.44
2019-04-16T05:33:48.758Z,32.06
2019-04-16T05:34:48.686Z,32.06
2019-04-16T05:35:48.627Z,31.01
2019-04-16T05:36:48.558Z,29.38
2019-04-16T05:37:51.327Z,28.33
2019-04-16T05:38:48.409Z,26.79
2019-04-16T05:39:48.334Z,27.37
2019-04-16T05:40:48.266Z,28.80
2019-04-16T05:41:50.500Z,30.15
2019-04-16T05:42:48.144Z,30.91
2019-04-16T05:43:48.079Z,31.87
2019-04-16T05:44:48.000Z,32.63
2019-04-16T05:45:47.922Z,33.20
2019-04-16T05:46:47.846Z,33.87
2019-04-16T05:47:48.978Z,35.22
2019-04-16T05:48:47.713Z,35.31
2019-04-16T05:49:47.647Z,36.55
2019-04-16T05:50:47.587Z,37.43
2019-04-16T05:51:47.500Z,38.01
2019-04-16T05:52:47.434Z,38.49
2019-04-16T05:53:47.368Z,38.96
2019-04-16T05:54:47.317Z,38.87
2019-04-16T05:55:50.031Z,39.54
2019-04-16T05:56:47.161Z,39.83
2019-04-16T05:57:47.082Z,40.50
2019-04-16T05:58:47.013Z,40.69
2019-04-16T05:59:46.943Z,41.27
2019-04-16T06:00:46.874Z,41.36
2019-04-16T06:01:46.815Z,41.65
2019-04-16T06:02:49.674Z,42.13
2019-04-16T06:03:46.674Z,42.80
2019-04-16T06:04:46.607Z,42.51
2019-04-16T06:05:46.527Z,42.41
2019-04-16T06:06:46.456Z,42.41
2019-04-16T06:07:46.405Z,41.34
2019-04-16T06:08:46.328Z,40.95
2019-04-16T06:09:46.251Z,40.77
2019-04-16T06:10:49.663Z,40.77
2019-04-16T06:11:46.136Z,40.98
2019-04-16T06:12:46.040Z,41.34
2019-04-16T06:13:45.983Z,41.36
2019-04-16T06:14:46.505Z,42.32
2019-04-16T06:15:45.842Z,42.41
2019-04-16T06:16:45.772Z,42.51
2019-04-16T06:17:45.690Z,42.70
2019-04-16T06:18:45.622Z,42.60
2019-04-16T06:19:46.910Z,42.41
2019-04-16T06:20:45.486Z,42.41
2019-04-16T06:21:45.434Z,42.60
2019-04-16T06:22:45.357Z,42.60
2019-04-16T06:23:48.088Z,41.34
2019-04-16T06:24:45.208Z,41.36
2019-04-16T06:25:45.154Z,41.17
2019-04-16T06:26:47.371Z,41.55
2019-04-16T06:27:45.011Z,42.32
2019-04-16T06:28:44.940Z,42.60
2019-04-16T06:29:47.024Z,44.43
2019-04-16T06:30:44.794Z,44.52
2019-04-16T06:31:44.741Z,45.02
2019-04-16T06:32:44.674Z,45.79
2019-04-16T06:33:44.592Z,46.46
2019-04-16T06:34:44.522Z,46.84
2019-04-16T06:35:44.456Z,47.22
2019-04-16T06:36:46.023Z,47.61
2019-04-16T06:37:45.808Z,48.28
2019-04-16T06:38:44.260Z,48.57
2019-04-16T06:39:44.182Z,49.24
2019-04-16T06:40:44.110Z,49.81
2019-04-16T06:41:47.782Z,50.38
2019-04-16T06:42:43.982Z,51.44
2019-04-16T06:43:43.915Z,51.44
2019-04-16T06:44:43.846Z,51.63
2019-04-16T06:45:43.766Z,51.63
2019-04-16T06:46:43.706Z,51.63
2019-04-16T06:47:43.631Z,51.82
2019-04-16T06:48:45.949Z,52.20
2019-04-16T06:49:43.512Z,52.50
2019-04-16T06:50:43.439Z,52.69
2019-04-16T06:51:44.486Z,52.87
2019-04-16T06:52:43.325Z,53.00
2019-04-16T06:53:43.246Z,52.91
2019-04-16T06:54:45.508Z,53.38
2019-04-16T06:55:43.149Z,53.48
2019-04-16T06:56:43.027Z,54.03
2019-04-16T06:57:43.843Z,54.44
2019-04-16T06:58:50.643Z,54.91
2019-04-16T06:59:42.825Z,54.72
2019-04-16T07:00:42.747Z,54.53
2019-04-16T07:01:42.693Z,54.82
2019-04-16T07:02:44.022Z,55.58
2019-04-16T07:03:42.540Z,55.30
2019-04-16T07:04:42.477Z,56.26
2019-04-16T07:05:42.421Z,56.26
2019-04-16T07:06:43.904Z,55.87
2019-04-16T07:07:45.970Z,56.35
2019-04-16T07:08:42.219Z,56.16
2019-04-16T07:09:43.264Z,56.64
2019-04-16T07:10:44.577Z,56.54
2019-04-16T07:11:53.891Z,57.03
2019-04-16T07:12:42.011Z,57.12
2019-04-16T07:13:42.867Z,57.50
2019-04-16T07:14:41.798Z,57.41
2019-04-16T07:15:41.730Z,58.17
2019-04-16T07:16:41.662Z,58.08
2019-04-16T07:17:41.609Z,58.01
2019-04-16T07:18:41.543Z,58.49
2019-04-16T07:19:42.178Z,58.97
2019-04-16T07:20:42.332Z,59.16
2019-04-16T07:21:41.327Z,59.42
2019-04-16T07:22:41.258Z,59.42
2019-04-16T07:23:41.442Z,59.16
2019-04-16T07:24:41.153Z,59.45
2019-04-16T07:25:43.308Z,59.55
2019-04-16T07:26:46.401Z,59.64
2019-04-16T07:27:40.926Z,59.55
2019-04-16T07:28:41.104Z,59.83
2019-04-16T07:29:40.859Z,61.08
2019-04-16T07:30:40.966Z,60.99
2019-04-16T07:31:40.771Z,60.60
2019-04-16T07:32:40.596Z,61.08
2019-04-16T07:33:40.523Z,61.15
2019-04-16T07:34:40.495Z,61.24
2019-04-16T07:35:40.395Z,61.34
2019-04-16T07:36:40.334Z,61.27
2019-04-16T07:37:40.253Z,61.37
2019-04-16T07:38:40.183Z,61.56
2019-04-16T07:39:40.120Z,60.99
2019-04-16T07:40:40.925Z,62.04
2019-04-16T07:41:42.778Z,62.04
2019-04-16T07:42:51.285Z,62.23
2019-04-16T07:43:39.854Z,62.52
2019-04-16T07:44:40.053Z,62.42
2019-04-16T07:45:39.748Z,62.52
2019-04-16T07:46:39.660Z,62.42
2019-04-16T07:47:39.588Z,62.90
2019-04-16T07:48:39.522Z,62.96
2019-04-16T07:49:39.448Z,63.92
2019-04-16T07:50:39.376Z,63.92
2019-04-16T07:51:39.307Z,63.83
2019-04-16T07:52:41.918Z,63.92
2019-04-16T07:53:39.192Z,64.12
2019-04-16T07:54:39.114Z,63.83
2019-04-16T07:55:39.050Z,63.86
2019-04-16T07:56:38.984Z,63.86
2019-04-16T07:57:38.905Z,63.86
2019-04-16T07:58:38.838Z,64.09
2019-04-16T07:59:38.787Z,64.09
2019-04-16T08:00:41.260Z,64.09
2019-04-16T08:01:38.637Z,63.99
2019-04-16T08:02:38.570Z,63.99
2019-04-16T08:03:38.503Z,63.89
2019-04-16T08:04:38.435Z,63.79
2019-04-16T08:05:41.253Z,63.79
2019-04-16T08:06:38.312Z,64.18
2019-04-16T08:07:38.252Z,64.37
2019-04-16T08:08:38.176Z,65.23
2019-04-16T08:09:38.113Z,64.89
2019-04-16T08:10:38.035Z,65.27
2019-04-16T08:11:37.970Z,65.36
2019-04-16T08:12:37.905Z,65.27
2019-04-16T08:13:37.847Z,66.19
2019-04-16T08:14:37.782Z,65.91
2019-04-16T08:15:37.702Z,66.33
2019-04-16T08:16:47.088Z,65.94
2019-04-16T08:17:37.582Z,65.94
2019-04-16T08:18:37.512Z,66.33
2019-04-16T08:19:37.658Z,66.46
2019-04-16T08:20:37.384Z,66.16
2019-04-16T08:21:37.303Z,66.55
2019-04-16T08:22:39.901Z,67.19
2019-04-16T08:23:39.131Z,67.00
2019-04-16T08:24:37.105Z,67.38
2019-04-16T08:25:37.052Z,67.38
2019-04-16T08:26:36.982Z,67.54
2019-04-16T08:27:36.926Z,67.54
2019-04-16T08:28:36.854Z,67.63
2019-04-16T08:29:36.769Z,67.57
2019-04-16T08:30:39.434Z,67.86
2019-04-16T08:31:36.654Z,67.86
2019-04-16T08:32:36.583Z,67.86
2019-04-16T08:33:36.511Z,67.86
2019-04-16T08:34:36.445Z,67.51
2019-04-16T08:35:36.372Z,67.90
2019-04-16T08:36:36.318Z,67.61
2019-04-16T08:37:48.261Z,67.86
2019-04-16T08:38:36.185Z,67.96
2019-04-16T08:39:36.844Z,67.76
2019-04-16T08:40:36.041Z,68.05
2019-04-16T08:41:36.012Z,67.86
2019-04-16T08:42:44.477Z,67.90
2019-04-16T08:43:35.854Z,68.08
2019-04-16T08:44:36.462Z,67.99
2019-04-16T08:45:39.201Z,67.99
2019-04-16T08:46:35.643Z,67.90
2019-04-16T08:47:35.587Z,67.83
2019-04-16T08:48:35.529Z,67.74
2019-04-16T08:49:35.445Z,68.02
2019-04-16T08:50:35.385Z,68.21
2019-04-16T08:51:37.836Z,67.74
2019-04-16T08:52:35.246Z,67.93
2019-04-16T08:53:35.765Z,68.31
2019-04-16T08:54:35.132Z,69.34
2019-04-16T08:55:35.063Z,69.91
2019-04-16T08:56:34.992Z,69.78
2019-04-16T08:57:34.916Z,69.43
2019-04-16T08:58:35.686Z,69.81
2019-04-16T08:59:34.786Z,69.53
2019-04-16T09:00:34.719Z,69.91
2019-04-16T09:01:34.662Z,69.24
2019-04-16T09:02:34.596Z,68.66
2019-04-16T09:03:34.519Z,68.66
2019-04-16T09:04:35.286Z,68.70
2019-04-16T09:05:34.402Z,68.89
2019-04-16T09:06:34.334Z,69.14
2019-04-16T09:07:34.264Z,69.43
2019-04-16T09:08:34.205Z,69.81
2019-04-16T09:09:34.123Z,70.20
2019-04-16T09:10:34.058Z,69.81
2019-04-16T09:11:35.353Z,69.91
2019-04-16T09:12:34.031Z,69.81
2019-04-16T09:13:33.871Z,69.37
2019-04-16T09:14:33.801Z,69.18
2019-04-16T09:15:33.742Z,69.08
2019-04-16T09:16:33.668Z,68.89
2019-04-16T09:17:33.599Z,68.98
2019-04-16T09:18:33.533Z,69.37
2019-04-16T09:19:33.478Z,70.01
2019-04-16T09:20:34.725Z,70.10
2019-04-16T09:21:33.341Z,70.29
2019-04-16T09:22:33.272Z,70.29
2019-04-16T09:23:33.201Z,70.39
2019-04-16T09:24:33.131Z,69.81
2019-04-16T09:25:33.086Z,70.20
2019-04-16T09:26:33.014Z,70.39
2019-04-16T09:27:34.209Z,70.23
2019-04-16T09:28:32.898Z,70.10
2019-04-16T09:29:32.803Z,70.20
2019-04-16T09:30:32.765Z,70.78
2019-04-16T09:31:32.673Z,70.78
2019-04-16T09:32:32.609Z,71.00
2019-04-16T09:33:33.503Z,71.00
2019-04-16T09:34:32.486Z,70.52
2019-04-16T09:35:32.444Z,70.52
2019-04-16T09:36:32.342Z,70.52
2019-04-16T09:37:32.285Z,70.43
2019-04-16T09:38:32.224Z,69.85
2019-04-16T09:39:32.158Z,69.46
2019-04-16T09:40:32.089Z,69.50
2019-04-16T09:41:32.011Z,69.37
2019-04-16T09:42:31.947Z,69.56
2019-04-16T09:43:31.898Z,70.14
2019-04-16T09:44:35.238Z,70.23
2019-04-16T09:45:33.885Z,70.43
2019-04-16T09:46:50.647Z,70.81
2019-04-16T09:47:32.753Z,70.81
2019-04-16T09:48:34.491Z,70.37
2019-04-16T09:49:34.359Z,70.62
2019-04-16T09:50:31.425Z,70.27
2019-04-16T09:51:31.353Z,69.89
2019-04-16T09:52:31.292Z,69.79
2019-04-16T09:53:33.968Z,70.46
2019-04-16T09:54:31.168Z,70.43
2019-04-16T09:55:31.101Z,70.37
2019-04-16T09:56:31.031Z,70.65
2019-04-16T09:57:32.327Z,69.89
2019-04-16T09:58:30.911Z,70.17
2019-04-16T09:59:30.834Z,69.79
2019-04-16T10:00:30.796Z,69.79
2019-04-16T10:01:30.704Z,69.31
2019-04-16T10:02:30.638Z,69.40
2019-04-16T10:03:30.578Z,69.31
2019-04-16T10:04:30.508Z,69.02
2019-04-16T10:05:30.431Z,69.40
2019-04-16T10:06:30.363Z,69.06
2019-04-16T10:07:30.317Z,69.34
2019-04-16T10:08:30.256Z,69.15
2019-04-16T10:09:30.177Z,69.06
2019-04-16T10:10:30.105Z,69.53
2019-04-16T10:11:32.658Z,68.96
2019-04-16T10:12:29.989Z,69.63
2019-04-16T10:13:33.012Z,70.11
2019-04-16T10:14:29.856Z,69.89
2019-04-16T10:15:29.805Z,70.94
2019-04-16T10:16:29.793Z,70.84
2019-04-16T10:17:29.664Z,70.84
2019-04-16T10:18:34.433Z,71.14
2019-04-16T10:19:29.525Z,72.00
2019-04-16T10:20:29.469Z,71.04
2019-04-16T10:21:29.432Z,71.23
2019-04-16T10:22:29.329Z,70.78
2019-04-16T10:23:29.249Z,70.50
2019-04-16T10:24:29.197Z,70.21
2019-04-16T10:25:29.142Z,70.40
2019-04-16T10:26:29.068Z,69.92
2019-04-16T10:27:32.347Z,70.50
2019-04-16T10:28:28.930Z,70.11
2019-04-16T10:29:28.859Z,70.59
2019-04-16T10:30:30.246Z,70.94
2019-04-16T10:31:28.727Z,71.08
2019-04-16T10:32:28.668Z,71.08
2019-04-16T10:33:28.613Z,71.08
2019-04-16T10:34:28.546Z,71.08
2019-04-16T10:35:28.487Z,70.78
2019-04-16T10:36:28.417Z,71.08
2019-04-16T10:37:28.357Z,71.17
2019-04-16T10:38:28.290Z,70.94
2019-04-16T10:39:28.234Z,71.00
2019-04-16T10:40:28.153Z,71.64
2019-04-16T10:41:28.091Z,72.34
2019-04-16T10:42:28.013Z,72.25
2019-04-16T10:43:27.956Z,71.96
2019-04-16T10:44:27.918Z,72.06
2019-04-16T10:45:27.837Z,72.06
2019-04-16T10:46:27.759Z,72.00
2019-04-16T10:47:27.675Z,72.19
2019-04-16T10:48:27.609Z,71.71
2019-04-16T10:49:27.559Z,70.94
2019-04-16T10:50:27.490Z,71.04
2019-04-16T10:51:27.430Z,71.19
2019-04-16T10:52:27.367Z,72.06
2019-04-16T10:53:27.278Z,71.96
2019-04-16T10:54:27.220Z,71.87
2019-04-16T10:55:27.166Z,71.91
2019-04-16T10:56:27.114Z,72.25
2019-04-16T10:57:27.066Z,72.09
2019-04-16T10:58:26.954Z,72.25
2019-04-16T10:59:26.904Z,72.29
2019-04-16T11:00:26.828Z,71.58
2019-04-16T11:01:30.480Z,70.84
2019-04-16T11:02:28.745Z,69.69
2019-04-16T11:03:28.678Z,69.31
2019-04-16T11:04:26.565Z,69.31
2019-04-16T11:05:26.488Z,69.12
2019-04-16T11:06:26.421Z,69.24
2019-04-16T11:07:26.374Z,69.02
2019-04-16T11:08:26.301Z,69.31
2019-04-16T11:09:26.271Z,69.44
2019-04-16T11:10:26.183Z,68.63
2019-04-16T11:11:26.090Z,68.86
2019-04-16T11:12:26.041Z,69.34
2019-04-16T11:13:25.970Z,69.12
2019-04-16T11:14:25.930Z,69.34
2019-04-16T11:15:25.847Z,69.24
2019-04-16T11:16:25.787Z,68.76
2019-04-16T11:17:25.705Z,68.96
2019-04-16T11:18:25.637Z,68.09
2019-04-16T11:19:25.574Z,68.57
2019-04-16T11:20:25.527Z,68.48
2019-04-16T11:21:25.433Z,68.60
2019-04-16T11:22:25.365Z,68.22
2019-04-16T11:23:25.336Z,67.74
2019-04-16T11:24:25.246Z,68.03
2019-04-16T11:25:25.181Z,67.26
2019-04-16T11:26:25.116Z,67.35
2019-04-16T11:27:25.035Z,67.16
2019-04-16T11:28:24.971Z,67.83
2019-04-16T11:29:24.914Z,67.65
2019-04-16T11:30:24.859Z,67.90
2019-04-16T11:31:24.786Z,68.19
2019-04-16T11:32:24.744Z,68.09
2019-04-16T11:33:27.409Z,68.48
2019-04-16T11:34:24.573Z,68.38
2019-04-16T11:35:24.615Z,68.38
2019-04-16T11:36:24.443Z,68.48
2019-04-16T11:37:24.413Z,68.96
2019-04-16T11:38:24.385Z,69.69
2019-04-16T11:39:24.292Z,70.17
2019-04-16T11:40:24.192Z,70.07
2019-04-16T11:41:24.130Z,69.06
2019-04-16T11:42:24.047Z,69.06
2019-04-16T11:43:24.037Z,68.48
2019-04-16T11:44:23.945Z,68.38
2019-04-16T11:45:23.864Z,68.51
2019-04-16T11:46:23.806Z,68.57
2019-04-16T11:47:23.715Z,68.57
2019-04-16T11:48:23.651Z,68.86
2019-04-16T11:49:23.600Z,69.24
2019-04-16T11:50:23.624Z,68.96
2019-04-16T11:51:23.478Z,68.67
2019-04-16T11:52:23.401Z,68.76
2019-04-16T11:53:23.333Z,68.76
2019-04-16T11:54:23.402Z,68.70
2019-04-16T11:55:23.210Z,68.90
2019-04-16T11:56:23.156Z,68.41
2019-04-16T11:57:23.064Z,68.51
2019-04-16T11:58:22.997Z,68.41
2019-04-16T11:59:22.934Z,68.03
2019-04-16T12:00:22.869Z,67.35
2019-04-16T12:01:23.150Z,67.83
2019-04-16T12:02:22.726Z,67.16
2019-04-16T12:03:22.698Z,67.83
2019-04-16T12:04:22.639Z,67.83
2019-04-16T12:05:22.568Z,67.74
2019-04-16T12:06:28.205Z,67.45
2019-04-16T12:07:22.429Z,68.03
2019-04-16T12:08:22.370Z,67.45
2019-04-16T12:09:22.302Z,67.83
2019-04-16T12:10:22.218Z,68.03
2019-04-16T12:11:22.142Z,68.03
2019-04-16T12:12:22.072Z,67.16
2019-04-16T12:13:22.035Z,67.07
2019-04-16T12:14:30.733Z,67.16
2019-04-16T12:15:21.889Z,67.26
2019-04-16T12:16:24.123Z,67.16
2019-04-16T12:17:21.757Z,66.97
2019-04-16T12:18:21.689Z,67.16
2019-04-16T12:19:21.659Z,66.58
2019-04-16T12:20:21.592Z,66.78
2019-04-16T12:21:21.482Z,66.78
2019-04-16T12:22:21.440Z,66.97
2019-04-16T12:23:21.395Z,67.35
2019-04-16T12:24:21.337Z,67.26
2019-04-16T12:25:21.245Z,67.45
2019-04-16T12:26:21.221Z,67.74
2019-04-16T12:27:21.114Z,67.07
2019-04-16T12:28:21.060Z,67.26
2019-04-16T12:29:23.130Z,67.58
2019-04-16T12:30:20.895Z,66.71
2019-04-16T12:31:20.901Z,66.24
2019-04-16T12:32:20.788Z,66.42
2019-04-16T12:33:20.736Z,66.33
2019-04-16T12:34:20.665Z,65.56
2019-04-16T12:35:20.568Z,66.04
2019-04-16T12:36:20.529Z,66.14
2019-04-16T12:37:20.440Z,66.33
2019-04-16T12:38:20.421Z,65.66
2019-04-16T12:39:20.357Z,64.21
2019-04-16T12:40:21.184Z,63.64
2019-04-16T12:41:20.167Z,63.54
2019-04-16T12:42:20.154Z,63.34
2019-04-16T12:43:20.053Z,63.54
2019-04-16T12:44:24.085Z,64.12
2019-04-16T12:45:19.990Z,63.82
2019-04-16T12:46:19.879Z,63.44
2019-04-16T12:47:19.770Z,63.34
2019-04-16T12:48:19.738Z,63.44
2019-04-16T12:49:19.666Z,63.15
2019-04-16T12:50:19.634Z,63.06
2019-04-16T12:51:19.661Z,63.34